Time;durP1;ratioP1;P1;durP2;ratioP2;P2;SDS_P1;SDS_P2;PMS_P1;PMS_P2;Temp;Humidity;BMP_temperature;BMP_pressure;BME280_temperature;BME280_humidity;BME280_pressure;Samples;Min_cycle;Max_cycle;Signal;HPM_P1;HPM_P2
2022/01/31 00:01:53;;;;;;;16.73;3.90;;;5.00;99.90;;;;;;5036368;28;20454;-80
2022/01/31 00:04:20;;;;;;;16.93;4.10;;;5.00;99.90;;;;;;5036183;28;20475;-80
2022/01/31 00:06:48;;;;;;;16.57;5.20;;;5.00;99.90;;;;;;5037350;28;20496;-80
2022/01/31 00:09:16;;;;;;;12.30;3.80;;;5.00;99.90;;;;;;5038008;28;20451;-80
2022/01/31 00:11:54;;;;;;;13.20;3.20;;;5.00;99.90;;;;;;5037454;28;20454;-80
2022/01/31 00:14:31;;;;;;;15.83;4.00;;;5.00;99.90;;;;;;5032505;28;20484;-81
2022/01/31 00:16:58;;;;;;;9.57;3.13;;;5.10;99.90;;;;;;5039593;28;20455;-80
2022/01/31 00:19:25;;;;;;;12.33;4.33;;;5.10;99.90;;;;;;5038031;28;20491;-79
2022/01/31 00:21:52;;;;;;;13.77;4.53;;;5.10;99.90;;;;;;5036818;28;20455;-80
2022/01/31 00:24:19;;;;;;;12.70;3.27;;;5.20;99.90;;;;;;5035894;28;20475;-81
2022/01/31 00:26:47;;;;;;;16.53;3.97;;;5.20;99.90;;;;;;5038597;28;20458;-80
2022/01/31 00:29:14;;;;;;;6.87;3.00;;;5.20;99.90;;;;;;5036395;28;20457;-80
2022/01/31 00:31:40;;;;;;;14.73;3.90;;;5.30;99.90;;;;;;5035050;28;21298;-80
2022/01/31 00:34:07;;;;;;;11.77;3.67;;;5.30;99.90;;;;;;5037004;28;21133;-81
2022/01/31 00:36:34;;;;;;;10.20;3.23;;;5.30;99.90;;;;;;5056144;28;20542;-80
2022/01/31 00:39:01;;;;;;;12.57;3.20;;;5.30;99.90;;;;;;5038288;28;20455;-80
2022/01/31 00:41:27;;;;;;;18.43;3.47;;;5.30;99.90;;;;;;5036248;28;20459;-82
2022/01/31 00:44:00;;;;;;;9.80;2.83;;;5.30;99.90;;;;;;5034915;28;20891;-80
2022/01/31 00:46:34;;;;;;;7.03;2.93;;;5.30;99.90;;;;;;5036481;28;20465;-80
2022/01/31 00:49:01;;;;;;;9.43;3.20;;;5.30;99.90;;;;;;5035836;28;20495;-80
2022/01/31 00:51:28;;;;;;;10.30;3.10;;;5.40;99.90;;;;;;5036532;28;20458;-81
2022/01/31 00:53:54;;;;;;;9.47;2.80;;;5.30;99.90;;;;;;5034605;28;20486;-81
2022/01/31 00:56:21;;;;;;;11.20;3.57;;;5.40;99.90;;;;;;5036849;28;20458;-80
2022/01/31 00:58:50;;;;;;;18.30;5.63;;;5.40;99.90;;;;;;5036408;28;20459;-81
2022/01/31 01:01:19;;;;;;;8.67;3.03;;;5.30;99.90;;;;;;5054227;28;20822;-81
2022/01/31 01:03:45;;;;;;;15.30;3.80;;;5.30;99.90;;;;;;5034819;28;20559;-81
2022/01/31 01:06:12;;;;;;;8.50;3.63;;;5.30;99.90;;;;;;5036393;28;20953;-81
2022/01/31 01:08:39;;;;;;;10.53;3.23;;;5.30;99.90;;;;;;5036350;28;20545;-80
2022/01/31 01:11:06;;;;;;;10.20;3.13;;;5.30;99.90;;;;;;5034618;28;20483;-80
2022/01/31 01:13:33;;;;;;;6.40;2.70;;;5.30;99.90;;;;;;5033995;28;20477;-80
2022/01/31 01:16:00;;;;;;;10.17;3.30;;;5.30;99.90;;;;;;5035046;28;20567;-80
2022/01/31 01:18:28;;;;;;;7.23;3.17;;;5.30;99.90;;;;;;5035251;28;20461;-81
2022/01/31 01:20:55;;;;;;;10.23;4.80;;;5.40;99.90;;;;;;5034801;28;20462;-80
2022/01/31 01:23:21;;;;;;;6.93;2.50;;;5.40;99.90;;;;;;5032553;28;20474;-80
2022/01/31 01:25:49;;;;;;;13.67;3.80;;;5.40;99.90;;;;;;5033944;28;20962;-80
2022/01/31 01:28:16;;;;;;;10.90;3.50;;;5.30;99.90;;;;;;5034820;28;20466;-79
2022/01/31 01:30:43;;;;;;;9.93;3.60;;;5.30;99.90;;;;;;5034866;28;20492;-79
2022/01/31 01:33:17;;;;;;;14.40;3.17;;;5.40;99.90;;;;;;5033752;28;20616;-80
2022/01/31 01:35:48;;;;;;;16.10;3.50;;;5.40;99.90;;;;;;5035150;28;20491;-79
2022/01/31 01:38:17;;;;;;;16.27;3.90;;;5.40;99.90;;;;;;5022505;28;20479;-80
2022/01/31 01:40:45;;;;;;;8.50;3.53;;;5.40;99.90;;;;;;5035458;28;20466;-79
2022/01/31 01:43:14;;;;;;;13.00;3.67;;;5.40;99.90;;;;;;5033824;28;20582;-80
2022/01/31 01:45:41;;;;;;;10.33;3.27;;;5.40;99.90;;;;;;5035163;28;20561;-80
2022/01/31 01:48:09;;;;;;;14.13;3.73;;;5.40;99.90;;;;;;5034389;28;20469;-80
2022/01/31 01:50:37;;;;;;;10.93;4.63;;;5.40;99.90;;;;;;5035160;28;20465;-81
2022/01/31 01:53:07;;;;;;;17.60;6.23;;;5.40;99.90;;;;;;5033958;28;20564;-80
2022/01/31 01:55:34;;;;;;;18.33;3.70;;;5.30;99.90;;;;;;5034646;28;20517;-80
2022/01/31 01:58:03;;;;;;;12.37;3.90;;;5.30;99.90;;;;;;5035323;28;20554;-80
2022/01/31 02:00:43;;;;;;;7.13;2.53;;;5.40;99.90;;;;;;5034482;28;20971;-79
2022/01/31 02:03:10;;;;;;;14.73;3.10;;;5.40;99.90;;;;;;5034387;28;20594;-80
2022/01/31 02:05:37;;;;;;;14.07;3.93;;;5.50;99.90;;;;;;5036781;28;20558;-80
2022/01/31 02:08:06;;;;;;;9.63;2.37;;;5.50;99.90;;;;;;5039657;28;20454;-80
2022/01/31 02:10:33;;;;;;;9.73;2.93;;;5.40;99.90;;;;;;5038561;28;20458;-80
2022/01/31 02:13:04;;;;;;;10.30;3.17;;;5.40;99.90;;;;;;5038325;28;20470;-79
2022/01/31 02:15:31;;;;;;;8.37;2.97;;;5.30;99.90;;;;;;5038807;28;20490;-79
2022/01/31 02:17:58;;;;;;;11.60;2.80;;;5.30;99.90;;;;;;5038705;28;20466;-80
2022/01/31 02:20:25;;;;;;;7.33;2.47;;;5.30;99.90;;;;;;5039187;28;20832;-79
2022/01/31 02:22:53;;;;;;;14.80;3.60;;;5.20;99.90;;;;;;5037595;28;20480;-78
2022/01/31 02:25:20;;;;;;;12.80;3.90;;;5.10;99.90;;;;;;5038825;28;20463;-79
2022/01/31 02:27:46;;;;;;;15.23;3.83;;;4.90;99.90;;;;;;5039049;28;20448;-79
2022/01/31 02:30:15;;;;;;;15.33;3.80;;;4.80;99.90;;;;;;5038592;28;20544;-79
2022/01/31 02:32:42;;;;;;;9.37;4.87;;;4.60;99.90;;;;;;5037408;28;20477;-79
2022/01/31 02:35:11;;;;;;;17.77;4.03;;;4.60;99.90;;;;;;5035556;28;20489;-77
2022/01/31 02:37:38;;;;;;;11.03;3.60;;;4.50;99.90;;;;;;5034875;28;20981;-77
2022/01/31 02:40:09;;;;;;;11.17;4.50;;;4.40;99.90;;;;;;5035312;28;20453;-77
2022/01/31 02:42:36;;;;;;;18.53;4.33;;;4.30;99.90;;;;;;5036067;28;20476;-77
2022/01/31 02:45:05;;;;;;;12.43;4.67;;;4.20;99.90;;;;;;5033234;28;20442;-77
2022/01/31 02:47:37;;;;;;;19.90;4.10;;;4.20;99.90;;;;;;5034666;28;20468;-77
2022/01/31 02:50:07;;;;;;;14.17;6.17;;;4.10;99.90;;;;;;5035362;28;20889;-78
2022/01/31 02:52:36;;;;;;;11.70;5.40;;;4.10;99.90;;;;;;5035836;28;20873;-79
2022/01/31 02:55:05;;;;;;;13.50;4.77;;;4.10;99.90;;;;;;5038264;28;21020;-79
2022/01/31 02:57:33;;;;;;;15.97;4.30;;;4.00;99.90;;;;;;5039200;28;20452;-79
2022/01/31 03:00:00;;;;;;;9.10;4.03;;;3.90;99.90;;;;;;5038802;28;20540;-80
2022/01/31 03:02:27;;;;;;;8.03;3.70;;;3.80;99.90;;;;;;5039263;28;20454;-80
2022/01/31 03:04:53;;;;;;;10.17;4.60;;;3.80;99.90;;;;;;5039533;28;20504;-80
2022/01/31 03:07:20;;;;;;;15.50;5.07;;;3.80;99.90;;;;;;5039957;28;20938;-81
2022/01/31 03:09:47;;;;;;;9.27;4.30;;;3.80;99.90;;;;;;5039044;28;20462;-80
2022/01/31 03:12:14;;;;;;;13.00;4.37;;;3.80;99.90;;;;;;5039674;28;21050;-80
2022/01/31 03:14:43;;;;;;;14.63;4.70;;;3.70;99.90;;;;;;5041304;28;20465;-80
2022/01/31 03:17:10;;;;;;;9.93;4.50;;;3.70;99.90;;;;;;5040158;28;20461;-81
2022/01/31 03:19:38;;;;;;;8.53;3.77;;;3.70;99.90;;;;;;5038684;28;20499;-81
2022/01/31 03:22:05;;;;;;;14.20;4.70;;;3.60;99.90;;;;;;5039724;28;20460;-82
2022/01/31 03:24:32;;;;;;;11.97;4.67;;;3.60;99.90;;;;;;5039509;28;20563;-82
2022/01/31 03:26:59;;;;;;;14.03;4.13;;;3.60;99.90;;;;;;5042860;28;20492;-82
2022/01/31 03:29:26;;;;;;;9.63;4.33;;;3.50;99.90;;;;;;5040942;28;20457;-82
2022/01/31 03:31:54;;;;;;;7.33;4.37;;;3.60;99.90;;;;;;5037620;28;20456;-80
2022/01/31 03:34:21;;;;;;;13.47;4.63;;;3.60;99.90;;;;;;5037096;28;20483;-80
2022/01/31 03:36:48;;;;;;;7.50;3.30;;;3.60;99.90;;;;;;5039311;28;20480;-79
2022/01/31 03:39:15;;;;;;;11.10;3.93;;;3.60;99.90;;;;;;5038051;28;20454;-80
2022/01/31 03:41:42;;;;;;;14.30;4.97;;;3.70;99.90;;;;;;5037384;28;20465;-81
2022/01/31 03:44:08;;;;;;;7.60;3.90;;;3.70;99.90;;;;;;5036108;28;20461;-81
2022/01/31 03:46:36;;;;;;;8.10;3.30;;;3.80;99.90;;;;;;5037196;28;20469;-81
2022/01/31 03:49:04;;;;;;;8.63;3.33;;;3.80;99.90;;;;;;5036861;28;20453;-82
2022/01/31 03:51:34;;;;;;;8.90;3.07;;;3.90;99.90;;;;;;5038549;28;20457;-81
2022/01/31 03:54:01;;;;;;;12.37;4.80;;;3.90;99.90;;;;;;5046715;28;20507;-82
2022/01/31 03:56:27;;;;;;;6.77;4.27;;;3.90;99.90;;;;;;5035021;28;20486;-83
2022/01/31 03:58:54;;;;;;;12.27;3.87;;;4.00;99.90;;;;;;5043868;28;20469;-82
2022/01/31 04:01:23;;;;;;;8.30;3.60;;;4.00;99.90;;;;;;5054988;28;20528;-82
2022/01/31 04:03:50;;;;;;;7.20;3.77;;;4.00;99.90;;;;;;5054164;28;20472;-83
2022/01/31 04:06:18;;;;;;;10.63;5.17;;;4.10;99.90;;;;;;5054791;28;20473;-83
2022/01/31 04:08:45;;;;;;;12.00;5.50;;;4.20;99.90;;;;;;5054655;28;20461;-81
2022/01/31 04:11:12;;;;;;;10.20;5.70;;;4.20;99.90;;;;;;5048259;28;20461;-83
2022/01/31 04:13:39;;;;;;;12.63;5.37;;;4.20;99.90;;;;;;5042167;28;20509;-82
2022/01/31 04:16:06;;;;;;;12.90;7.00;;;4.30;99.90;;;;;;5041826;28;20490;-82
2022/01/31 04:18:33;;;;;;;10.03;6.73;;;4.30;99.90;;;;;;5038577;28;20544;-81
2022/01/31 04:21:00;;;;;;;12.03;7.20;;;4.30;99.90;;;;;;5038572;28;20549;-82
2022/01/31 04:23:29;;;;;;;9.50;6.93;;;4.40;99.90;;;;;;5038048;28;20523;-82
2022/01/31 04:26:03;;;;;;;15.60;6.70;;;4.40;99.90;;;;;;5038889;28;20445;-82
2022/01/31 04:28:32;;;;;;;11.43;6.07;;;4.40;99.90;;;;;;5037423;28;20459;-82
2022/01/31 04:31:11;;;;;;;14.40;7.87;;;4.40;99.90;;;;;;5019226;28;20451;-83
2022/01/31 04:33:39;;;;;;;8.10;7.13;;;4.50;99.90;;;;;;5024831;28;20477;-82
2022/01/31 04:36:07;;;;;;;14.23;8.50;;;4.60;99.90;;;;;;5039151;28;20475;-80
2022/01/31 04:38:35;;;;;;;9.27;6.50;;;4.60;99.90;;;;;;5039780;28;20454;-82
2022/01/31 04:41:03;;;;;;;9.60;6.33;;;4.60;99.90;;;;;;5039695;28;20529;-82
2022/01/31 04:43:30;;;;;;;12.90;7.50;;;4.60;99.90;;;;;;5038710;28;20475;-82
2022/01/31 04:46:00;;;;;;;12.73;8.30;;;4.70;99.90;;;;;;5039392;28;20534;-81
2022/01/31 04:48:27;;;;;;;13.40;8.80;;;4.70;99.90;;;;;;5044469;28;20455;-81
2022/01/31 04:50:54;;;;;;;11.57;7.60;;;4.80;99.90;;;;;;5045546;28;20919;-80
2022/01/31 04:53:21;;;;;;;13.40;6.23;;;4.80;99.90;;;;;;5047315;28;20477;-81
2022/01/31 04:55:49;;;;;;;10.80;6.13;;;5.30;99.90;;;;;;5063883;22;20498;-79
2022/01/31 04:58:19;;;;;;;8.90;4.70;;;5.40;99.90;;;;;;5037767;28;21184;-80
2022/01/31 05:00:46;;;;;;;8.67;6.23;;;5.50;99.90;;;;;;5036561;28;20882;-83
2022/01/31 05:03:15;;;;;;;12.90;7.93;;;5.30;99.90;;;;;;5036762;28;20820;-82
2022/01/31 05:05:43;;;;;;;11.80;8.20;;;5.20;99.90;;;;;;5037709;28;20472;-81
2022/01/31 05:08:10;;;;;;;19.23;11.53;;;5.20;99.90;;;;;;5037204;28;20882;-84
2022/01/31 05:10:43;;;;;;;20.80;12.87;;;5.20;99.90;;;;;;5049037;28;20450;-83
2022/01/31 05:13:12;;;;;;;17.20;11.23;;;5.20;99.90;;;;;;5058937;28;20949;-83
2022/01/31 05:15:39;;;;;;;17.60;11.03;;;5.20;99.90;;;;;;5049190;28;20497;-83
2022/01/31 05:18:06;;;;;;;14.17;9.30;;;5.20;99.90;;;;;;5039887;28;20510;-84
2022/01/31 05:20:33;;;;;;;16.00;9.73;;;5.30;99.90;;;;;;5040392;28;20477;-83
2022/01/31 05:23:00;;;;;;;18.50;10.07;;;5.30;99.90;;;;;;5040815;28;20462;-81
2022/01/31 05:25:26;;;;;;;19.70;10.80;;;5.30;99.90;;;;;;5051270;28;20490;-84
2022/01/31 05:27:53;;;;;;;16.70;11.03;;;5.40;99.90;;;;;;5059211;28;20463;-84
2022/01/31 05:30:23;;;;;;;18.10;10.93;;;5.40;99.90;;;;;;5040766;28;20460;-83
2022/01/31 05:32:50;;;;;;;19.23;11.57;;;5.40;99.90;;;;;;5045894;28;20964;-84
2022/01/31 05:35:17;;;;;;;17.43;10.37;;;5.40;99.90;;;;;;5060799;28;20471;-84
2022/01/31 05:37:44;;;;;;;20.50;12.37;;;5.40;99.90;;;;;;5056921;28;20486;-85
2022/01/31 05:40:12;;;;;;;13.07;8.87;;;5.40;99.90;;;;;;5041301;28;20467;-84
2022/01/31 05:42:39;;;;;;;16.93;9.80;;;5.50;99.90;;;;;;5046190;28;20500;-85
2022/01/31 05:45:07;;;;;;;15.80;9.13;;;5.50;99.90;;;;;;5045053;28;20475;-84
2022/01/31 05:47:36;;;;;;;18.90;8.50;;;5.50;99.90;;;;;;5058253;28;20455;-84
2022/01/31 05:50:04;;;;;;;13.80;8.30;;;5.50;99.90;;;;;;5046241;28;20456;-83
2022/01/31 05:52:31;;;;;;;14.37;8.17;;;5.50;99.90;;;;;;5044170;28;20458;-83
2022/01/31 05:54:58;;;;;;;11.60;7.10;;;5.50;99.90;;;;;;5035810;28;20482;-82
2022/01/31 05:57:25;;;;;;;12.40;6.87;;;5.40;99.90;;;;;;5040089;28;20487;-81
2022/01/31 05:59:52;;;;;;;16.13;8.60;;;5.50;99.90;;;;;;5048833;28;20451;-81
2022/01/31 06:02:19;;;;;;;14.97;7.80;;;5.50;99.90;;;;;;5044313;28;20485;-81
2022/01/31 06:04:47;;;;;;;11.57;8.03;;;5.50;99.90;;;;;;5047939;28;20515;-82
2022/01/31 06:07:14;;;;;;;10.17;6.30;;;5.50;99.90;;;;;;5049449;28;20456;-82
2022/01/31 06:09:40;;;;;;;8.97;4.83;;;5.40;99.90;;;;;;5052314;28;20460;-83
2022/01/31 06:12:11;;;;;;;12.13;4.80;;;5.40;99.90;;;;;;5050557;28;20494;-82
2022/01/31 06:14:37;;;;;;;9.80;4.80;;;5.40;99.90;;;;;;5049218;28;20467;-81
2022/01/31 06:17:04;;;;;;;12.80;4.90;;;5.40;99.90;;;;;;5055285;28;20491;-82
2022/01/31 06:19:31;;;;;;;9.07;5.50;;;5.30;99.90;;;;;;5051609;28;20452;-83
2022/01/31 06:21:59;;;;;;;12.60;5.67;;;5.30;99.90;;;;;;5048231;28;20501;-82
2022/01/31 06:24:26;;;;;;;12.90;6.60;;;5.30;99.90;;;;;;5046606;28;20924;-83
2022/01/31 06:26:53;;;;;;;21.17;6.60;;;5.40;99.90;;;;;;5047258;28;20447;-83
2022/01/31 06:29:20;;;;;;;16.83;7.67;;;5.40;99.90;;;;;;5047869;28;20531;-83
2022/01/31 06:31:47;;;;;;;16.23;6.87;;;5.40;99.90;;;;;;5047379;28;20533;-83
2022/01/31 06:34:14;;;;;;;12.07;6.17;;;5.50;99.90;;;;;;5052760;28;20481;-83
2022/01/31 06:36:41;;;;;;;11.03;5.90;;;5.50;99.90;;;;;;5056567;28;20577;-83
2022/01/31 06:39:09;;;;;;;13.20;5.20;;;5.50;99.90;;;;;;5044302;28;20456;-83
2022/01/31 06:41:36;;;;;;;9.80;5.20;;;5.60;99.90;;;;;;5043647;28;20455;-83
2022/01/31 06:44:02;;;;;;;13.93;6.50;;;5.60;99.90;;;;;;5041589;28;20451;-84
2022/01/31 06:46:29;;;;;;;18.30;5.00;;;5.60;99.90;;;;;;5043491;28;20448;-82
2022/01/31 06:48:56;;;;;;;9.87;5.00;;;5.60;99.90;;;;;;5045783;28;20478;-83
2022/01/31 06:51:23;;;;;;;10.90;4.90;;;5.60;99.90;;;;;;5045907;28;20489;-83
2022/01/31 06:53:49;;;;;;;11.50;5.80;;;5.60;99.90;;;;;;5045005;28;20454;-83
2022/01/31 06:56:18;;;;;;;12.50;6.87;;;5.60;99.90;;;;;;5048793;28;20494;-83
2022/01/31 06:58:45;;;;;;;13.70;5.27;;;5.60;99.90;;;;;;5034541;28;20453;-83
2022/01/31 07:01:12;;;;;;;11.17;4.10;;;5.60;99.90;;;;;;5047951;28;20518;-84
2022/01/31 07:03:40;;;;;;;14.33;5.17;;;5.60;99.90;;;;;;5047731;28;20461;-84
2022/01/31 07:06:07;;;;;;;17.23;5.60;;;5.60;99.90;;;;;;5046638;28;20807;-82
2022/01/31 07:08:34;;;;;;;15.63;6.20;;;5.60;99.90;;;;;;5048171;28;20224;-81
2022/01/31 07:11:01;;;;;;;16.40;5.37;;;5.50;99.90;;;;;;5046123;28;20480;-81
2022/01/31 07:13:38;;;;;;;12.70;5.10;;;5.50;99.90;;;;;;5046221;28;20485;-83
2022/01/31 07:16:06;;;;;;;10.30;4.33;;;5.40;99.90;;;;;;5045533;28;20486;-84
2022/01/31 07:18:34;;;;;;;5.00;3.80;;;5.30;99.90;;;;;;5046841;28;20458;-85
2022/01/31 07:21:01;;;;;;;9.47;2.80;;;5.20;99.90;;;;;;5046744;28;20457;-85
2022/01/31 07:23:38;;;;;;;5.63;2.50;;;5.10;99.90;;;;;;5047312;28;20458;-83
2022/01/31 07:26:05;;;;;;;8.47;2.30;;;5.00;99.90;;;;;;5046395;28;20507;-84
2022/01/31 07:28:33;;;;;;;5.03;2.33;;;5.00;99.90;;;;;;5046177;28;20463;-83
2022/01/31 07:31:00;;;;;;;8.07;2.20;;;4.90;99.90;;;;;;5048625;28;20511;-83
2022/01/31 07:33:27;;;;;;;6.30;1.73;;;4.90;99.90;;;;;;5045970;28;20469;-84
2022/01/31 07:35:54;;;;;;;8.53;1.87;;;4.80;99.90;;;;;;5046298;28;20473;-83
2022/01/31 07:38:22;;;;;;;4.93;1.90;;;4.70;99.90;;;;;;5045609;28;20491;-83
2022/01/31 07:40:51;;;;;;;6.73;2.20;;;4.70;99.90;;;;;;5044592;28;20461;-83
2022/01/31 07:43:18;;;;;;;5.73;1.90;;;4.60;99.90;;;;;;5061228;28;20463;-84
2022/01/31 07:45:46;;;;;;;5.33;2.40;;;4.60;99.90;;;;;;5044177;28;20492;-83
2022/01/31 07:48:13;;;;;;;7.47;2.90;;;4.60;99.90;;;;;;5043688;28;20811;-83
2022/01/31 07:50:40;;;;;;;10.37;5.07;;;4.60;99.90;;;;;;5044494;28;20481;-83
2022/01/31 07:53:06;;;;;;;11.87;5.83;;;4.70;99.90;;;;;;5046344;28;20538;-85
2022/01/31 07:55:34;;;;;;;13.77;6.43;;;4.70;99.90;;;;;;5044292;28;20483;-85
2022/01/31 07:58:01;;;;;;;12.73;6.50;;;4.70;99.90;;;;;;5048981;28;20554;-84
2022/01/31 08:00:29;;;;;;;11.40;6.07;;;4.80;99.90;;;;;;5046763;28;20446;-83
2022/01/31 08:02:58;;;;;;;17.80;7.73;;;4.80;99.90;;;;;;5049676;28;20449;-83
2022/01/31 08:05:24;;;;;;;16.20;7.17;;;4.80;99.90;;;;;;5046221;28;20498;-83
2022/01/31 08:07:51;;;;;;;13.53;7.27;;;4.80;99.90;;;;;;5048092;28;20455;-83
2022/01/31 08:10:18;;;;;;;14.37;6.80;;;4.80;99.90;;;;;;5048357;28;20645;-84
2022/01/31 08:12:45;;;;;;;12.80;6.60;;;4.80;99.90;;;;;;5044840;28;20474;-83
2022/01/31 08:15:21;;;;;;;12.63;6.23;;;4.80;99.90;;;;;;5045688;28;20489;-81
2022/01/31 08:17:48;;;;;;;11.03;6.40;;;4.70;99.90;;;;;;5023025;28;20593;-82
2022/01/31 08:20:16;;;;;;;14.10;7.10;;;4.80;99.90;;;;;;5042502;28;20467;-83
2022/01/31 08:22:42;;;;;;;10.50;6.03;;;4.80;99.90;;;;;;5046890;28;20461;-84
2022/01/31 08:25:14;;;;;;;10.27;6.20;;;4.80;99.90;;;;;;5044822;28;20471;-83
2022/01/31 08:27:42;;;;;;;8.67;6.87;;;4.80;99.90;;;;;;5059193;28;20511;-83
2022/01/31 08:30:14;;;;;;;7.70;5.30;;;4.80;99.90;;;;;;5051252;28;20878;-83
2022/01/31 08:32:45;;;;;;;9.73;5.57;;;4.70;99.90;;;;;;5042460;28;20457;-82
2022/01/31 08:37:59;;;;;;;15.73;8.33;;;4.80;99.90;;;;;;5046310;28;20480;-85
2022/01/31 08:40:26;;;;;;;10.87;6.77;;;4.80;99.90;;;;;;5050343;28;20465;-85
2022/01/31 08:42:53;;;;;;;13.87;7.57;;;4.80;99.90;;;;;;5041788;28;20458;-83
2022/01/31 08:45:20;;;;;;;16.50;6.00;;;4.80;99.90;;;;;;5057900;28;20502;-83
2022/01/31 08:47:46;;;;;;;14.00;7.67;;;4.90;99.90;;;;;;5049565;28;20585;-84
2022/01/31 08:50:13;;;;;;;8.60;6.37;;;4.80;99.90;;;;;;5043756;28;20473;-84
2022/01/31 08:52:43;;;;;;;9.03;6.00;;;4.80;99.90;;;;;;5056564;28;20449;-84
2022/01/31 08:55:12;;;;;;;8.43;5.90;;;4.90;99.90;;;;;;5047088;28;20528;-84
2022/01/31 08:57:39;;;;;;;43.23;22.83;;;4.90;99.90;;;;;;5051227;28;20518;-83
2022/01/31 09:00:07;;;;;;;10.20;5.63;;;4.90;99.90;;;;;;5048435;28;20442;-84
2022/01/31 09:02:40;;;;;;;12.60;5.40;;;4.90;99.90;;;;;;5054372;28;21046;-81
2022/01/31 09:05:07;;;;;;;11.97;6.87;;;4.90;99.90;;;;;;5050915;28;20509;-84
2022/01/31 09:07:34;;;;;;;14.50;6.90;;;4.90;99.90;;;;;;5053097;28;20479;-82
2022/01/31 09:10:01;;;;;;;9.80;5.70;;;4.90;99.90;;;;;;5048741;28;20462;-83
2022/01/31 09:12:32;;;;;;;10.53;5.40;;;5.00;99.90;;;;;;5038820;28;20452;-83
2022/01/31 09:15:00;;;;;;;10.40;4.77;;;4.90;99.90;;;;;;5052024;28;20469;-83
2022/01/31 09:17:27;;;;;;;12.60;5.83;;;5.00;99.90;;;;;;5043364;28;20488;-84
2022/01/31 09:19:53;;;;;;;8.23;4.27;;;5.00;99.90;;;;;;5044724;28;21013;-84
2022/01/31 09:22:20;;;;;;;13.60;5.47;;;4.90;99.90;;;;;;5041562;28;20472;-82
2022/01/31 09:24:50;;;;;;;13.90;5.33;;;4.90;99.90;;;;;;5052817;28;20478;-82
2022/01/31 09:27:16;;;;;;;14.33;4.67;;;4.90;99.90;;;;;;5043548;28;20465;-84
2022/01/31 09:29:45;;;;;;;11.77;5.47;;;5.00;99.90;;;;;;5050882;28;20455;-82
2022/01/31 09:32:12;;;;;;;8.00;3.03;;;5.00;99.90;;;;;;5049465;28;20454;-82
2022/01/31 09:34:40;;;;;;;8.63;3.53;;;5.10;99.90;;;;;;5048702;28;20558;-82
2022/01/31 09:37:07;;;;;;;12.23;3.67;;;5.10;99.90;;;;;;5046565;28;20496;-83
2022/01/31 09:39:35;;;;;;;11.53;4.17;;;5.10;99.90;;;;;;5054707;28;20457;-82
2022/01/31 09:42:02;;;;;;;10.97;3.70;;;5.10;99.90;;;;;;5049310;28;20500;-82
2022/01/31 09:44:44;;;;;;;16.23;3.97;;;5.10;99.90;;;;;;5050579;28;20489;-82
2022/01/31 09:47:21;;;;;;;17.40;4.87;;;5.10;99.90;;;;;;5046312;28;20451;-83
2022/01/31 09:49:48;;;;;;;7.63;3.57;;;5.10;99.90;;;;;;5046132;28;20452;-83
2022/01/31 09:52:16;;;;;;;9.97;3.83;;;5.10;99.90;;;;;;5048096;28;21098;-82
2022/01/31 09:54:47;;;;;;;5.93;3.87;;;5.20;99.90;;;;;;5049390;28;20563;-83
2022/01/31 09:57:14;;;;;;;18.17;4.53;;;5.20;99.90;;;;;;5055286;28;20493;-83
2022/01/31 09:59:41;;;;;;;9.27;4.67;;;5.20;99.90;;;;;;5054832;28;20514;-82
2022/01/31 10:02:10;;;;;;;8.40;3.30;;;5.20;99.90;;;;;;5043578;28;20540;-84
2022/01/31 10:04:43;;;;;;;10.60;3.10;;;5.10;99.90;;;;;;5041967;28;20537;-84
2022/01/31 10:07:10;;;;;;;16.97;3.20;;;5.10;99.90;;;;;;5037804;28;20466;-83
2022/01/31 10:09:37;;;;;;;8.50;4.07;;;5.20;99.90;;;;;;5061534;28;20467;-85
2022/01/31 10:12:08;;;;;;;11.77;3.60;;;5.30;99.90;;;;;;5053649;28;20896;-82
2022/01/31 10:17:26;;;;;;;11.67;3.77;;;5.30;99.90;;;;;;5039733;28;20475;-85
2022/01/31 10:19:55;;;;;;;6.63;2.80;;;5.40;99.90;;;;;;5037533;28;20447;-84
2022/01/31 10:22:24;;;;;;;12.10;3.80;;;5.40;99.90;;;;;;5048578;28;21099;-83
2022/01/31 10:24:53;;;;;;;9.23;2.70;;;5.40;99.90;;;;;;5029859;28;20800;-84
2022/01/31 10:27:23;;;;;;;15.87;3.57;;;5.30;99.90;;;;;;5041103;28;20460;-84
2022/01/31 10:29:53;;;;;;;8.93;3.10;;;5.40;99.90;;;;;;5041325;28;20535;-85
2022/01/31 10:32:26;;;;;;;5.80;2.30;;;5.40;99.90;;;;;;5060257;28;20525;-85
2022/01/31 10:34:57;;;;;;;8.43;2.70;;;5.30;99.90;;;;;;5058915;28;20481;-84
2022/01/31 10:37:25;;;;;;;16.00;2.83;;;5.30;99.90;;;;;;5048563;28;20480;-83
2022/01/31 10:45:47;;;;;;;6.60;1.93;;;5.40;99.90;;;;;;5046064;28;20479;-82
2022/01/31 10:51:53;;;;;;;5.57;2.03;;;5.30;99.90;;;;;;5050862;28;20489;-84
2022/01/31 10:54:40;;;;;;;8.33;1.80;;;5.40;99.90;;;;;;5060850;28;20491;-84
2022/01/31 10:57:14;;;;;;;5.83;2.20;;;5.40;99.90;;;;;;5044912;28;20473;-83
2022/01/31 10:59:43;;;;;;;7.60;2.43;;;5.40;99.90;;;;;;5051822;28;20462;-83
2022/01/31 11:02:17;;;;;;;6.00;2.30;;;5.40;99.90;;;;;;5053505;28;20492;-84
2022/01/31 11:04:45;;;;;;;5.43;1.70;;;5.40;99.90;;;;;;5050418;28;20469;-84
2022/01/31 11:07:14;;;;;;;7.37;2.43;;;5.50;99.90;;;;;;5051462;28;20466;-84
2022/01/31 11:09:45;;;;;;;8.93;3.00;;;5.60;99.90;;;;;;5052564;28;20480;-81
2022/01/31 11:12:12;;;;;;;6.80;2.43;;;5.70;99.90;;;;;;5052526;28;20457;-85
2022/01/31 11:14:42;;;;;;;6.50;1.60;;;5.70;99.90;;;;;;5049299;28;20475;-84
2022/01/31 11:17:11;;;;;;;3.97;2.07;;;5.70;99.90;;;;;;5054002;28;20465;-83
2022/01/31 11:19:39;;;;;;;6.77;1.80;;;7.50;99.90;;;;;;5049878;28;20531;-82
2022/01/31 11:22:08;;;;;;;5.40;1.60;;;8.00;99.90;;;;;;5040056;28;20555;-82
2022/01/31 11:24:43;;;;;;;3.07;1.50;;;7.20;99.90;;;;;;5043919;28;20518;-83
2022/01/31 11:27:12;;;;;;;4.03;1.63;;;6.70;99.90;;;;;;5042001;28;20463;-83
2022/01/31 11:29:43;;;;;;;4.60;1.70;;;6.40;99.90;;;;;;5048358;28;20466;-83
2022/01/31 11:32:10;;;;;;;6.13;2.13;;;6.10;99.90;;;;;;5047671;28;20529;-83
2022/01/31 11:34:40;;;;;;;8.57;2.00;;;5.90;99.90;;;;;;5045683;28;20476;-82
2022/01/31 11:37:08;;;;;;;4.67;1.57;;;5.90;99.90;;;;;;5048723;28;20476;-83
2022/01/31 11:39:38;;;;;;;6.40;2.10;;;5.90;99.90;;;;;;5041943;28;20523;-82
2022/01/31 11:42:06;;;;;;;8.10;1.70;;;5.90;99.90;;;;;;5049835;28;20451;-81
2022/01/31 11:44:45;;;;;;;5.17;2.07;;;5.90;99.90;;;;;;5034590;28;20866;-81
2022/01/31 11:47:12;;;;;;;12.33;3.80;;;5.90;99.90;;;;;;5045191;28;20545;-83
2022/01/31 11:49:48;;;;;;;10.80;2.70;;;5.90;99.90;;;;;;5043105;28;20450;-80
2022/01/31 11:52:16;;;;;;;15.30;2.60;;;5.90;99.90;;;;;;5038937;28;20450;-81
2022/01/31 11:54:49;;;;;;;8.27;2.30;;;5.90;99.90;;;;;;5040220;28;20507;-82
2022/01/31 11:57:18;;;;;;;7.30;2.20;;;6.00;99.90;;;;;;5051380;28;21039;-81
2022/01/31 11:59:44;;;;;;;3.53;1.30;;;6.00;99.90;;;;;;5041510;28;20542;-80
2022/01/31 12:02:16;;;;;;;8.67;1.67;;;6.00;99.90;;;;;;5039080;28;20972;-81
2022/01/31 12:04:49;;;;;;;7.50;1.80;;;6.00;99.90;;;;;;5018475;28;20489;-81
2022/01/31 12:07:33;;;;;;;2.70;1.70;;;6.00;99.90;;;;;;5019273;28;20556;-81
2022/01/31 12:10:01;;;;;;;11.97;3.00;;;6.00;99.90;;;;;;5018228;28;20465;-81
2022/01/31 12:12:37;;;;;;;11.23;2.67;;;5.90;99.90;;;;;;5052510;28;20524;-81
2022/01/31 12:15:41;;;;;;;5.57;1.70;;;5.90;99.90;;;;;;5055994;28;20509;-81
2022/01/31 12:22:00;;;;;;;8.33;3.50;;;6.00;99.90;;;;;;5036884;28;20472;-80
2022/01/31 12:24:30;;;;;;;11.23;2.30;;;6.00;99.90;;;;;;5035680;28;20472;-81
2022/01/31 12:27:04;;;;;;;14.03;3.13;;;6.10;99.90;;;;;;5043332;28;20451;-82
2022/01/31 12:29:33;;;;;;;8.17;4.00;;;6.00;99.90;;;;;;5016728;28;20526;-81
2022/01/31 12:32:10;;;;;;;13.63;4.20;;;6.00;99.90;;;;;;5029131;28;20450;-82
2022/01/31 12:34:39;;;;;;;13.37;3.70;;;6.00;99.90;;;;;;5034428;28;20470;-81
2022/01/31 12:37:23;;;;;;;19.33;4.27;;;6.00;99.90;;;;;;5034474;28;20976;-80
2022/01/31 12:40:04;;;;;;;14.33;4.57;;;6.10;99.90;;;;;;5037499;28;20486;-80
2022/01/31 12:43:10;;;;;;;10.17;3.33;;;6.10;99.90;;;;;;5038440;28;20446;-81
2022/01/31 12:46:14;;;;;;;12.57;3.13;;;6.10;99.90;;;;;;5049532;28;20497;-81
2022/01/31 12:48:42;;;;;;;13.23;4.00;;;6.10;99.90;;;;;;5040779;28;20451;-81
2022/01/31 12:51:18;;;;;;;9.23;2.30;;;6.10;99.90;;;;;;5044107;28;20881;-81
2022/01/31 12:53:52;;;;;;;15.93;3.33;;;6.10;99.90;;;;;;5046912;28;20440;-82
2022/01/31 12:56:26;;;;;;;9.27;2.80;;;6.10;99.90;;;;;;5037888;28;20459;-82
2022/01/31 12:59:02;;;;;;;18.77;4.47;;;6.10;99.90;;;;;;5040626;28;20497;-81
2022/01/31 13:01:31;;;;;;;12.17;4.10;;;6.00;99.90;;;;;;5045476;28;20446;-79
2022/01/31 13:04:00;;;;;;;10.37;2.43;;;6.10;99.90;;;;;;5042318;28;20451;-80
2022/01/31 13:06:33;;;;;;;10.57;2.70;;;6.10;99.90;;;;;;5054699;28;20817;-80
2022/01/31 13:09:04;;;;;;;7.53;2.13;;;6.20;99.90;;;;;;5039896;28;20473;-80
2022/01/31 13:11:32;;;;;;;12.23;2.90;;;6.20;99.90;;;;;;5046207;28;20464;-82
2022/01/31 13:14:11;;;;;;;5.87;1.57;;;6.10;99.90;;;;;;5046968;28;21011;-82
2022/01/31 13:16:40;;;;;;;7.53;2.10;;;6.10;99.90;;;;;;5048693;28;20510;-81
2022/01/31 13:19:15;;;;;;;5.40;2.00;;;6.10;99.90;;;;;;5047917;28;20489;-81